createdAt,value
2023-05-04T00:02:44.927Z,30.00
2023-05-04T00:05:48.291Z,32.00
2023-05-04T00:08:51.642Z,29.00
2023-05-04T00:11:55.153Z,26.20
2023-05-04T00:14:58.452Z,32.00
2023-05-04T00:18:03.180Z,26.80
2023-05-04T00:21:06.753Z,28.00
2023-05-04T00:24:10.019Z,30.00
2023-05-04T00:27:13.368Z,32.80
2023-05-04T00:30:17.153Z,30.60
2023-05-04T00:33:22.237Z,28.40
2023-05-04T00:36:25.416Z,31.00
2023-05-04T00:39:28.733Z,29.25
2023-05-04T00:42:32.001Z,30.00
2023-05-04T00:45:35.960Z,35.00
2023-05-04T00:48:41.760Z,31.25
2023-05-04T00:51:45.260Z,34.00
2023-05-04T00:54:49.063Z,30.80
2023-05-04T00:57:53.527Z,33.80
2023-05-04T01:00:57.267Z,33.60
2023-05-04T01:04:03.190Z,34.00
2023-05-04T01:07:19.750Z,36.60
2023-05-04T01:10:31.152Z,34.00
2023-05-04T01:13:36.882Z,32.20
2023-05-04T01:16:40.205Z,39.80
2023-05-04T01:19:45.610Z,37.60
2023-05-04T01:22:50.337Z,34.25
2023-05-04T01:26:02.688Z,32.60
2023-05-04T01:29:13.000Z,35.40
2023-05-04T01:32:18.085Z,36.80
2023-05-04T01:35:22.079Z,34.00
2023-05-04T01:38:26.911Z,33.20
2023-05-04T01:41:31.035Z,32.60
2023-05-04T01:44:34.319Z,32.40
2023-05-04T01:47:37.749Z,30.40
2023-05-04T01:50:41.458Z,32.00
2023-05-04T01:53:46.394Z,33.60
2023-05-04T01:56:49.612Z,34.50
2023-05-04T01:59:53.123Z,31.40
2023-05-04T02:02:56.783Z,31.00
2023-05-04T02:06:00.538Z,33.00
2023-05-04T02:09:05.215Z,29.00
2023-05-04T02:12:09.027Z,31.00
2023-05-04T02:15:12.884Z,25.80
2023-05-04T02:18:16.580Z,28.50
2023-05-04T02:21:20.041Z,26.75
2023-05-04T02:24:24.664Z,26.75
2023-05-04T02:27:27.919Z,26.40
2023-05-04T02:30:31.281Z,25.00
2023-05-04T02:33:34.741Z,27.40
2023-05-04T02:36:38.036Z,26.00
2023-05-04T02:39:42.674Z,23.75
2023-05-04T02:42:45.894Z,24.00
2023-05-04T02:45:49.190Z,21.50
2023-05-04T02:48:52.463Z,22.40
2023-05-04T02:51:55.758Z,23.20
2023-05-04T02:55:00.758Z,24.00
2023-05-04T02:58:04.052Z,21.60
2023-05-04T03:01:07.346Z,20.40
2023-05-04T03:04:10.797Z,22.60
2023-05-04T03:07:14.080Z,22.00
2023-05-04T03:10:18.831Z,22.00
2023-05-04T03:13:22.099Z,22.50
2023-05-04T03:16:25.583Z,17.00
2023-05-04T03:19:28.811Z,19.00
2023-05-04T03:22:32.790Z,20.50
2023-05-04T03:25:37.545Z,21.00
2023-05-04T03:28:41.491Z,21.60
2023-05-04T03:31:45.120Z,22.00
2023-05-04T03:34:51.613Z,27.00
2023-05-04T03:37:56.892Z,27.25
2023-05-04T03:41:01.568Z,32.20
2023-05-04T03:44:04.946Z,27.00
2023-05-04T03:47:08.841Z,26.75
2023-05-04T03:50:13.274Z,27.00
2023-05-04T03:53:16.762Z,30.00
2023-05-04T03:56:21.923Z,32.00
2023-05-04T03:59:25.379Z,34.00
2023-05-04T04:02:29.563Z,37.75
2023-05-04T04:05:33.899Z,33.00
2023-05-04T04:08:37.487Z,39.25
2023-05-04T04:11:42.160Z,33.00
2023-05-04T04:14:45.487Z,32.40
2023-05-04T04:17:48.712Z,40.00
2023-05-04T04:20:52.365Z,37.60
2023-05-04T04:23:55.640Z,33.00
2023-05-04T04:27:00.440Z,22.60
2023-05-04T04:30:04.474Z,26.50
2023-05-04T04:33:08.460Z,26.20
2023-05-04T04:36:12.747Z,21.00
2023-05-04T04:39:17.576Z,23.25
2023-05-04T04:42:22.319Z,18.00
2023-05-04T04:45:25.669Z,22.40
2023-05-04T04:48:28.924Z,20.40
2023-05-04T04:51:32.756Z,20.00
2023-05-04T04:54:36.075Z,19.80
2023-05-04T04:57:40.711Z,18.80
2023-05-04T05:00:45.414Z,24.40
2023-05-04T05:03:49.241Z,24.00
2023-05-04T05:06:54.272Z,18.40
2023-05-04T05:09:57.552Z,23.50
2023-05-04T05:13:03.340Z,17.60
2023-05-04T05:16:07.168Z,15.60
2023-05-04T05:19:10.558Z,18.00
2023-05-04T05:22:13.896Z,19.00
2023-05-04T05:25:17.214Z,20.00
2023-05-04T05:28:22.536Z,20.50
2023-05-04T05:31:25.921Z,22.40
2023-05-04T05:39:37.053Z,18.40
2023-05-04T05:42:40.417Z,20.40
2023-05-04T05:45:45.077Z,18.40
2023-05-04T05:48:48.367Z,22.60
2023-05-04T05:51:51.623Z,22.40
2023-05-04T05:54:55.140Z,24.00
2023-05-04T05:57:58.413Z,15.40
2023-05-04T06:01:03.684Z,23.60
2023-05-04T06:04:07.105Z,24.50
2023-05-04T06:07:10.446Z,23.60
2023-05-04T06:10:13.864Z,20.00
2023-05-04T06:13:17.255Z,19.00
2023-05-04T06:16:22.184Z,20.40
2023-05-04T06:19:25.863Z,19.75
2023-05-04T06:22:29.108Z,19.33
2023-05-04T06:25:32.338Z,23.40
2023-05-04T06:28:36.310Z,19.00
2023-05-04T06:31:41.106Z,20.00
2023-05-04T06:34:44.396Z,16.00
2023-05-04T06:37:47.649Z,16.00
2023-05-04T06:40:51.211Z,20.00
2023-05-04T06:43:56.161Z,19.00
2023-05-04T06:47:02.708Z,18.00
2023-05-04T06:50:09.682Z,20.00
2023-05-04T06:53:12.978Z,18.00
2023-05-04T06:56:16.660Z,19.50
2023-05-04T06:59:20.575Z,17.40
2023-05-04T07:02:25.288Z,14.50
2023-05-04T07:05:29.699Z,13.50
2023-05-04T07:08:33.072Z,15.75
2023-05-04T07:11:36.630Z,14.00
2023-05-04T07:14:39.823Z,14.00
2023-05-04T07:17:44.686Z,14.20
2023-05-04T07:20:47.897Z,12.40
2023-05-04T07:23:53.229Z,14.00
2023-05-04T07:26:56.953Z,12.00
2023-05-04T07:30:00.853Z,12.80
2023-05-04T07:33:05.563Z,12.00
2023-05-04T07:36:09.214Z,12.80
2023-05-04T07:39:12.626Z,15.40
2023-05-04T07:42:15.960Z,15.60
2023-05-04T07:45:19.180Z,15.50
2023-05-04T07:48:26.154Z,15.00
2023-05-04T07:51:29.996Z,14.40
2023-05-04T07:54:33.282Z,13.00
2023-05-04T07:57:38.028Z,15.00
2023-05-04T08:00:41.979Z,12.00
2023-05-04T08:03:46.601Z,10.00
2023-05-04T08:06:50.061Z,12.00
2023-05-04T08:09:55.804Z,11.00
2023-05-04T08:12:59.469Z,12.00
2023-05-04T08:16:02.732Z,11.00
2023-05-04T08:19:07.775Z,11.40
2023-05-04T08:22:10.995Z,9.20
2023-05-04T08:25:14.283Z,11.00
2023-05-04T08:28:17.570Z,9.25
2023-05-04T08:31:21.840Z,10.00
2023-05-04T08:34:26.636Z,10.40
2023-05-04T08:37:30.014Z,13.00
2023-05-04T08:40:35.090Z,9.50
2023-05-04T08:43:38.772Z,8.40
2023-05-04T08:46:42.729Z,9.20
2023-05-04T08:49:47.383Z,10.00
2023-05-04T08:52:52.444Z,7.00
2023-05-04T08:55:57.266Z,9.00
2023-05-04T08:59:03.900Z,9.00
2023-05-04T09:02:08.385Z,8.20
2023-05-04T09:05:13.576Z,7.00
2023-05-04T09:08:16.926Z,9.00
2023-05-04T09:11:20.119Z,11.00
2023-05-04T09:14:27.952Z,9.00
2023-05-04T09:17:31.302Z,10.00
2023-05-04T09:20:46.860Z,9.00
2023-05-04T09:23:51.332Z,11.00
2023-05-04T09:26:54.981Z,8.00
2023-05-04T09:29:58.401Z,9.00
2023-05-04T09:33:03.632Z,7.25
2023-05-04T09:36:16.470Z,9.00
2023-05-04T09:39:20.539Z,10.00
2023-05-04T09:42:24.614Z,9.00
2023-05-04T09:45:28.660Z,10.00
2023-05-04T09:48:32.037Z,10.75
2023-05-04T09:51:37.636Z,11.00
2023-05-04T09:54:44.350Z,8.40
2023-05-04T09:57:51.160Z,11.00
2023-05-04T10:00:54.801Z,11.00
2023-05-04T10:03:58.704Z,7.40
2023-05-04T10:07:05.727Z,6.20
2023-05-04T10:10:09.724Z,7.00
2023-05-04T10:13:13.269Z,8.20
2023-05-04T10:16:28.855Z,7.50
2023-05-04T10:19:59.876Z,8.00
2023-05-04T10:23:23.721Z,11.00
2023-05-04T10:26:55.282Z,9.00
2023-05-04T10:30:01.422Z,10.50
2023-05-04T10:33:04.939Z,7.00
2023-05-04T10:36:09.126Z,7.20
2023-05-04T10:39:24.175Z,10.00
2023-05-04T10:42:27.561Z,10.00
2023-05-04T10:45:38.504Z,9.40
2023-05-04T10:48:41.973Z,8.00
2023-05-04T10:55:00.638Z,7.60
2023-05-04T10:58:04.025Z,7.00
2023-05-04T11:01:13.147Z,10.00
2023-05-04T11:04:20.955Z,10.00
2023-05-04T11:07:34.494Z,9.00
2023-05-04T11:10:39.337Z,9.20
2023-05-04T11:13:45.576Z,10.60
2023-05-04T11:16:48.929Z,7.00
2023-05-04T11:19:53.730Z,9.00
2023-05-04T11:22:57.191Z,8.20
2023-05-04T11:26:06.696Z,8.00
2023-05-04T11:29:14.945Z,10.00
2023-05-04T11:32:18.226Z,11.80
2023-05-04T11:35:22.872Z,8.40
2023-05-04T11:38:26.499Z,9.00
2023-05-04T11:41:31.640Z,8.00
2023-05-04T11:44:35.411Z,10.60
2023-05-04T11:47:39.945Z,11.60
2023-05-04T11:50:43.788Z,10.00
2023-05-04T11:53:47.046Z,10.00
2023-05-04T11:56:51.701Z,8.00
2023-05-04T11:59:55.026Z,11.00
2023-05-04T12:02:58.637Z,12.50
2023-05-04T12:06:03.576Z,8.00
2023-05-04T12:09:07.737Z,10.60
2023-05-04T12:12:12.397Z,8.00
2023-05-04T12:15:16.356Z,10.00
2023-05-04T12:18:23.284Z,9.60
2023-05-04T12:21:26.758Z,8.00
2023-05-04T12:24:29.995Z,11.60
2023-05-04T12:27:34.704Z,9.00
2023-05-04T12:30:37.913Z,9.25
2023-05-04T12:33:41.204Z,7.00
2023-05-04T12:36:45.095Z,9.25
2023-05-04T12:39:48.570Z,10.00
2023-05-04T12:42:53.278Z,10.00
2023-05-04T12:45:57.985Z,9.40
2023-05-04T12:49:01.228Z,7.80
2023-05-04T12:52:04.851Z,8.00
2023-05-04T12:55:09.255Z,9.00
2023-05-04T12:58:13.920Z,10.00
2023-05-04T13:01:17.345Z,9.00
2023-05-04T13:04:20.951Z,9.75
2023-05-04T13:07:24.357Z,9.00
2023-05-04T13:10:28.134Z,10.40
2023-05-04T13:13:33.416Z,8.00
2023-05-04T13:16:37.064Z,8.40
2023-05-04T13:19:40.496Z,7.00
2023-05-04T13:22:43.916Z,8.80
2023-05-04T13:25:47.175Z,8.00
2023-05-04T13:28:53.246Z,8.40
2023-05-04T13:31:57.389Z,7.00
2023-05-04T13:35:00.743Z,7.00
2023-05-04T13:38:03.932Z,6.40
2023-05-04T13:41:07.217Z,7.00
2023-05-04T13:44:11.826Z,8.40
2023-05-04T13:47:16.606Z,6.00
2023-05-04T13:50:19.920Z,8.40
2023-05-04T13:53:23.472Z,7.40
2023-05-04T13:56:26.719Z,8.00
2023-05-04T13:59:31.695Z,5.40
2023-05-04T14:02:35.245Z,6.00
2023-05-04T14:05:38.722Z,7.00
2023-05-04T14:08:41.966Z,7.75
2023-05-04T14:11:45.342Z,8.60
2023-05-04T14:14:51.088Z,8.60
2023-05-04T14:17:54.364Z,9.00
2023-05-04T14:20:57.655Z,6.25
2023-05-04T14:24:01.016Z,8.00
2023-05-04T14:27:04.345Z,5.25
2023-05-04T14:30:10.534Z,6.20
2023-05-04T14:33:14.166Z,5.60
2023-05-04T14:36:17.453Z,5.60
2023-05-04T14:39:20.732Z,7.00
2023-05-04T14:42:23.970Z,7.00
2023-05-04T14:45:29.170Z,6.00
2023-05-04T14:48:32.663Z,7.00
2023-05-04T14:51:36.865Z,8.80
2023-05-04T14:54:40.504Z,7.00
2023-05-04T14:57:44.088Z,6.00
2023-05-04T15:00:48.891Z,7.00
2023-05-04T15:03:52.365Z,7.40
2023-05-04T15:06:55.744Z,5.00
2023-05-04T15:09:59.007Z,7.20
2023-05-04T15:13:03.687Z,5.00
2023-05-04T15:16:08.732Z,8.20
2023-05-04T15:19:12.165Z,6.00
2023-05-04T15:22:15.429Z,6.00
2023-05-04T15:25:19.320Z,6.00
2023-05-04T15:28:23.471Z,4.00
2023-05-04T15:31:28.167Z,6.60
2023-05-04T15:34:31.873Z,7.00
2023-05-04T15:37:35.445Z,8.00
2023-05-04T15:40:38.857Z,7.00
2023-05-04T15:43:42.091Z,10.00
2023-05-04T15:46:46.806Z,9.60
2023-05-04T15:49:50.093Z,6.00
2023-05-04T15:52:53.763Z,5.75
2023-05-04T15:55:57.292Z,6.00
2023-05-04T15:59:00.902Z,7.00
2023-05-04T16:02:08.133Z,7.00
2023-05-04T16:05:11.644Z,6.00
2023-05-04T16:08:14.964Z,6.00
2023-05-04T16:11:18.329Z,6.00
2023-05-04T16:14:21.847Z,6.00
2023-05-04T16:17:29.301Z,6.00
2023-05-04T16:20:32.592Z,4.60
2023-05-04T16:23:36.464Z,5.20
2023-05-04T16:26:39.974Z,4.50
2023-05-04T16:29:43.343Z,7.60
2023-05-04T16:32:48.026Z,8.00
2023-05-04T16:35:51.613Z,6.00
2023-05-04T16:38:54.864Z,7.00
2023-05-04T16:41:58.568Z,8.00
2023-05-04T16:45:01.797Z,5.50
2023-05-04T16:48:07.164Z,6.00
2023-05-04T16:51:10.693Z,6.50
2023-05-04T16:54:13.964Z,8.60
2023-05-04T16:57:17.616Z,7.60
2023-05-04T17:00:21.207Z,8.00
2023-05-04T17:03:26.020Z,4.20
2023-05-04T17:06:29.623Z,8.40
2023-05-04T17:09:32.994Z,6.75
2023-05-04T17:12:36.317Z,8.20
2023-05-04T17:15:39.581Z,7.00
2023-05-04T17:18:45.776Z,7.00
2023-05-04T17:21:49.038Z,7.00
2023-05-04T17:24:52.364Z,8.00
2023-05-04T17:27:56.211Z,6.40
2023-05-04T17:30:59.549Z,7.60
2023-05-04T17:34:04.249Z,8.40
2023-05-04T17:37:07.945Z,8.80
2023-05-04T17:40:12.514Z,9.40
2023-05-04T17:43:15.832Z,7.00
2023-05-04T17:46:19.123Z,7.00
2023-05-04T17:49:23.810Z,9.00
2023-05-04T17:52:27.046Z,7.00
2023-05-04T17:55:30.450Z,7.40
2023-05-04T17:58:33.633Z,9.00
2023-05-04T18:01:36.983Z,9.00
2023-05-04T18:04:41.653Z,11.00
2023-05-04T18:07:45.063Z,9.00
2023-05-04T18:10:48.998Z,10.00
2023-05-04T18:13:52.592Z,10.80
2023-05-04T18:16:55.859Z,8.00
2023-05-04T18:20:00.469Z,8.60
2023-05-04T18:23:03.745Z,9.00
2023-05-04T18:26:06.968Z,6.80
2023-05-04T18:29:18.388Z,8.00
2023-05-04T18:32:22.694Z,9.00
2023-05-04T18:35:27.828Z,8.20
2023-05-04T18:38:31.239Z,7.60
2023-05-04T18:41:34.494Z,9.20
2023-05-04T18:44:52.097Z,11.60
2023-05-04T18:47:55.438Z,8.60
2023-05-04T18:51:00.085Z,10.00
2023-05-04T18:54:03.365Z,9.67
2023-05-04T18:57:06.830Z,10.00
2023-05-04T19:00:11.762Z,6.80
2023-05-04T19:03:15.046Z,9.00
2023-05-04T19:06:19.613Z,13.20
2023-05-04T19:09:23.012Z,11.50
2023-05-04T19:12:26.331Z,11.00
2023-05-04T19:15:29.649Z,13.00
2023-05-04T19:18:35.137Z,12.80
2023-05-04T19:21:39.727Z,11.00
2023-05-04T19:24:43.078Z,16.00
2023-05-04T19:27:48.050Z,14.60
2023-05-04T19:30:54.160Z,13.67
2023-05-04T19:33:57.424Z,14.00
2023-05-04T19:37:02.247Z,15.00
2023-05-04T19:40:07.014Z,16.00
2023-05-04T19:43:10.784Z,16.50
2023-05-04T19:46:14.095Z,15.00
2023-05-04T19:49:17.338Z,13.60
2023-05-04T19:52:21.932Z,13.00
2023-05-04T19:55:25.326Z,16.60
2023-05-04T19:58:30.931Z,13.00
2023-05-04T20:01:34.550Z,13.00
2023-05-04T20:04:38.170Z,8.60
2023-05-04T20:07:42.751Z,13.50
2023-05-04T20:10:46.371Z,14.50
2023-05-04T20:13:49.626Z,10.40
2023-05-04T20:16:52.970Z,10.00
2023-05-04T20:19:56.606Z,13.00
2023-05-04T20:23:01.203Z,8.80
2023-05-04T20:26:06.083Z,11.00
2023-05-04T20:29:09.423Z,10.00
2023-05-04T20:32:12.720Z,8.75
2023-05-04T20:35:16.282Z,6.60
2023-05-04T20:38:20.898Z,12.60
2023-05-04T20:41:24.115Z,11.20
2023-05-04T20:44:27.860Z,11.20
2023-05-04T20:47:31.130Z,11.60
2023-05-04T20:50:34.422Z,13.00
2023-05-04T20:53:39.054Z,11.00
2023-05-04T20:56:42.307Z,11.00
2023-05-04T20:59:45.583Z,10.00
2023-05-04T21:02:49.098Z,6.00
2023-05-04T21:05:52.433Z,17.60
2023-05-04T21:08:57.292Z,11.50
2023-05-04T21:12:00.624Z,11.00
2023-05-04T21:15:04.048Z,11.00
2023-05-04T21:18:07.365Z,11.00
2023-05-04T21:21:10.736Z,10.75
2023-05-04T21:24:16.271Z,12.00
2023-05-04T21:27:19.540Z,10.00
2023-05-04T21:30:23.250Z,11.00
2023-05-04T21:33:26.808Z,11.60
2023-05-04T21:36:30.045Z,9.60
2023-05-04T21:39:34.640Z,10.00
2023-05-04T21:42:37.860Z,12.00
2023-05-04T21:45:41.081Z,13.00
2023-05-04T21:48:44.320Z,15.00
2023-05-04T21:51:47.561Z,12.00
2023-05-04T21:54:52.190Z,11.00
2023-05-04T21:57:56.210Z,10.20
2023-05-04T22:00:59.971Z,12.00
2023-05-04T22:04:03.175Z,12.40
2023-05-04T22:07:06.449Z,14.60
2023-05-04T22:10:11.473Z,9.00
2023-05-04T22:13:14.923Z,13.60
2023-05-04T22:16:20.102Z,12.00
2023-05-04T22:19:23.380Z,10.50
2023-05-04T22:22:26.942Z,8.00
2023-05-04T22:25:31.774Z,10.00
2023-05-04T22:28:35.035Z,10.00
2023-05-04T22:31:38.261Z,12.80
2023-05-04T22:34:42.015Z,10.00
2023-05-04T22:37:45.426Z,12.40
2023-05-04T22:40:50.205Z,12.40
2023-05-04T22:43:53.433Z,13.60
2023-05-04T22:46:56.690Z,14.00
2023-05-04T22:49:59.937Z,16.00
2023-05-04T22:53:03.321Z,16.00
2023-05-04T22:56:08.978Z,14.00
2023-05-04T22:59:16.078Z,17.00
2023-05-04T23:02:19.435Z,16.20
2023-05-04T23:05:23.020Z,17.00
2023-05-04T23:08:26.758Z,21.60
2023-05-04T23:11:31.419Z,21.50
2023-05-04T23:14:34.625Z,19.20
2023-05-04T23:17:38.850Z,21.40
2023-05-04T23:20:42.378Z,17.00
2023-05-04T23:23:45.845Z,23.20
2023-05-04T23:26:50.543Z,23.40
2023-05-04T23:29:53.900Z,24.25
2023-05-04T23:32:57.873Z,24.50
2023-05-04T23:36:01.180Z,26.00
2023-05-04T23:39:05.145Z,18.40
2023-05-04T23:42:09.955Z,22.00
2023-05-04T23:45:13.167Z,24.00
2023-05-04T23:48:16.730Z,21.40
2023-05-04T23:51:21.254Z,22.50
2023-05-04T23:54:24.538Z,23.00
2023-05-04T23:57:29.235Z,21.50
